createdAt,value
2018-12-06T00:00:19.302Z,97.12
2018-12-06T00:02:12.210Z,96.84
2018-12-06T00:03:12.215Z,96.84
2018-12-06T00:05:05.120Z,97.22
2018-12-06T00:06:05.132Z,97.03
2018-12-06T00:07:58.516Z,97.60
2018-12-06T00:08:58.527Z,97.22
2018-12-06T00:10:51.509Z,97.50
2018-12-06T00:11:51.443Z,97.50
2018-12-06T00:13:44.334Z,97.69
2018-12-06T00:14:44.349Z,97.50
2018-12-06T00:16:37.252Z,97.97
2018-12-06T00:17:37.256Z,98.26
2018-12-06T00:19:30.657Z,98.83
2018-12-06T00:20:30.670Z,98.74
2018-12-06T00:22:25.067Z,99.11
2018-12-06T00:23:25.071Z,99.11
2018-12-06T00:25:17.983Z,98.93
2018-12-06T00:26:17.986Z,98.93
2018-12-06T00:28:10.878Z,99.50
2018-12-06T00:29:10.894Z,98.93
2018-12-06T00:31:03.826Z,99.59
2018-12-06T00:32:03.799Z,99.78
2018-12-06T00:33:57.198Z,99.50
2018-12-06T00:34:57.213Z,98.93
2018-12-06T00:36:50.146Z,98.93
2018-12-06T00:37:50.140Z,98.83
2018-12-06T00:39:43.045Z,98.64
2018-12-06T00:40:43.054Z,98.07
2018-12-06T00:42:35.966Z,97.97
2018-12-06T00:43:35.976Z,98.07
2018-12-06T00:45:29.372Z,98.45
2018-12-06T00:46:29.375Z,98.55
2018-12-06T00:48:22.274Z,99.21
2018-12-06T00:49:22.285Z,98.93
2018-12-06T00:51:15.193Z,98.93
2018-12-06T00:52:15.198Z,98.64
2018-12-06T00:54:08.099Z,98.83
2018-12-06T00:55:08.110Z,98.55
2018-12-06T00:57:01.035Z,99.11
2018-12-06T00:58:01.023Z,99.02
2018-12-06T00:59:53.981Z,99.78
2018-12-06T01:00:53.929Z,99.88
2018-12-06T01:02:46.830Z,99.50
2018-12-06T01:03:46.837Z,99.40
2018-12-06T01:05:39.738Z,99.40
2018-12-06T01:06:39.746Z,99.40
2018-12-06T01:08:32.671Z,99.50
2018-12-06T01:09:32.659Z,99.78
2018-12-06T01:11:26.120Z,99.69
2018-12-06T01:12:26.102Z,99.50
2018-12-06T01:14:18.992Z,99.55
2018-12-06T01:15:19.012Z,99.93
2018-12-06T01:17:11.916Z,99.84
2018-12-06T01:18:11.930Z,99.84
2018-12-06T01:20:05.331Z,99.36
2018-12-06T01:21:05.334Z,99.45
2018-12-06T01:22:58.240Z,99.55
2018-12-06T01:23:58.247Z,99.93
2018-12-06T01:25:51.654Z,99.99
2018-12-06T01:26:51.658Z,99.99
2018-12-06T01:28:44.565Z,99.99
2018-12-06T01:29:44.580Z,99.99
2018-12-06T01:31:37.479Z,99.99
2018-12-06T01:32:37.487Z,99.99
2018-12-06T01:34:30.401Z,99.99
2018-12-06T01:35:30.420Z,99.99
2018-12-06T01:37:23.309Z,99.99
2018-12-06T01:38:23.311Z,99.99
2018-12-06T01:40:16.711Z,99.99
2018-12-06T01:41:16.720Z,99.99
2018-12-06T01:43:09.626Z,99.99
2018-12-06T01:44:09.629Z,99.99
2018-12-06T01:46:02.531Z,99.99
2018-12-06T01:47:02.538Z,99.99
2018-12-06T01:48:55.437Z,99.99
2018-12-06T01:49:55.450Z,99.99
2018-12-06T01:51:48.847Z,99.99
2018-12-06T01:52:48.853Z,99.99
2018-12-06T01:54:41.757Z,99.99
2018-12-06T01:55:41.771Z,99.99
2018-12-06T01:57:34.721Z,99.99
2018-12-06T01:58:34.696Z,99.99
2018-12-06T02:00:27.595Z,99.99
2018-12-06T02:01:27.606Z,99.99
2018-12-06T02:03:20.530Z,99.99
2018-12-06T02:04:20.517Z,99.99
2018-12-06T02:06:14.443Z,99.99
2018-12-06T02:07:14.449Z,99.99
2018-12-06T02:09:07.347Z,99.99
2018-12-06T02:10:07.361Z,99.99
2018-12-06T02:12:00.278Z,99.99
2018-12-06T02:13:00.365Z,99.99
2018-12-06T02:14:53.182Z,99.99
2018-12-06T02:15:53.193Z,99.99
2018-12-06T02:17:46.603Z,99.99
2018-12-06T02:18:46.606Z,99.99
2018-12-06T02:20:39.502Z,99.99
2018-12-06T02:21:39.518Z,99.99
2018-12-06T02:23:32.916Z,99.99
2018-12-06T02:24:32.925Z,99.99
2018-12-06T02:26:25.828Z,99.99
2018-12-06T02:27:25.832Z,99.99
2018-12-06T02:29:18.731Z,99.99
2018-12-06T02:30:18.745Z,99.99
2018-12-06T02:32:11.651Z,99.99
2018-12-06T02:33:11.657Z,99.99
2018-12-06T02:35:04.557Z,99.99
2018-12-06T02:36:04.570Z,99.99
2018-12-06T02:37:57.471Z,99.99
2018-12-06T02:38:57.477Z,99.99
2018-12-06T02:40:50.393Z,99.99
2018-12-06T02:41:50.398Z,99.99
2018-12-06T02:43:43.301Z,99.99
2018-12-06T02:44:43.304Z,99.99
2018-12-06T02:46:36.733Z,99.99
2018-12-06T02:47:36.719Z,99.99
2018-12-06T02:49:29.616Z,99.99
2018-12-06T02:50:29.630Z,99.99
2018-12-06T02:52:22.532Z,99.99
2018-12-06T02:53:22.536Z,99.99
2018-12-06T02:55:15.441Z,99.99
2018-12-06T02:56:15.449Z,99.99
2018-12-06T02:58:08.857Z,99.99
2018-12-06T02:59:08.863Z,99.99
2018-12-06T03:01:01.771Z,99.99
2018-12-06T03:02:01.783Z,99.99
2018-12-06T03:03:54.705Z,99.99
2018-12-06T03:04:54.709Z,99.99
2018-12-06T03:06:47.610Z,99.99
2018-12-06T03:07:47.623Z,99.99
2018-12-06T03:09:40.536Z,99.99
2018-12-06T03:10:40.539Z,99.99
2018-12-06T03:12:33.458Z,99.99
2018-12-06T03:13:33.450Z,99.99
2018-12-06T03:15:26.348Z,99.99
2018-12-06T03:16:26.373Z,99.99
2018-12-06T03:18:19.758Z,99.99
2018-12-06T03:19:19.763Z,99.99
2018-12-06T03:21:13.168Z,99.99
2018-12-06T03:22:13.182Z,99.99
2018-12-06T03:24:06.136Z,99.99
2018-12-06T03:25:06.100Z,99.99
2018-12-06T03:26:59.008Z,99.99
2018-12-06T03:27:59.011Z,99.99
2018-12-06T03:29:52.414Z,99.99
2018-12-06T03:30:52.419Z,99.99
2018-12-06T03:32:45.837Z,99.99
2018-12-06T03:33:45.849Z,99.99
2018-12-06T03:35:38.764Z,99.99
2018-12-06T03:36:38.770Z,99.99
2018-12-06T03:38:31.783Z,99.99
2018-12-06T03:39:31.688Z,99.99
2018-12-06T03:41:24.587Z,99.99
2018-12-06T03:42:24.606Z,99.99
2018-12-06T03:44:18.000Z,99.99
2018-12-06T03:45:18.009Z,99.99
2018-12-06T03:47:11.398Z,99.99
2018-12-06T03:48:11.413Z,99.99
2018-12-06T03:50:04.323Z,99.99
2018-12-06T03:51:04.328Z,99.99
2018-12-06T03:52:57.234Z,99.99
2018-12-06T03:53:57.245Z,99.99
2018-12-06T03:55:50.150Z,99.99
2018-12-06T03:56:50.159Z,99.99
2018-12-06T03:58:43.053Z,99.99
2018-12-06T03:59:43.068Z,99.99
2018-12-06T04:01:35.977Z,99.99
2018-12-06T04:02:35.992Z,99.99
2018-12-06T04:04:29.376Z,99.99
2018-12-06T04:05:29.384Z,99.99
2018-12-06T04:07:22.299Z,99.99
2018-12-06T04:08:22.295Z,99.99
2018-12-06T04:10:15.202Z,99.99
2018-12-06T04:11:15.211Z,99.99
2018-12-06T04:13:08.607Z,99.99
2018-12-06T04:14:08.617Z,99.99
2018-12-06T04:16:01.527Z,99.99
2018-12-06T04:17:01.527Z,99.99
2018-12-06T04:18:54.427Z,99.99
2018-12-06T04:19:54.441Z,99.99
2018-12-06T04:21:47.387Z,99.99
2018-12-06T04:22:47.365Z,99.99
2018-12-06T04:24:40.263Z,99.99
2018-12-06T04:25:40.275Z,99.99
2018-12-06T04:27:33.203Z,99.99
2018-12-06T04:28:33.211Z,99.99
2018-12-06T04:30:26.132Z,99.99
2018-12-06T04:31:26.124Z,99.99
2018-12-06T04:33:19.020Z,99.99
2018-12-06T04:34:19.037Z,99.99
2018-12-06T04:36:11.948Z,99.99
2018-12-06T04:37:11.955Z,99.99
2018-12-06T04:39:05.345Z,99.99
2018-12-06T04:40:05.359Z,99.99
2018-12-06T04:41:58.272Z,99.99
2018-12-06T04:42:58.274Z,99.99
2018-12-06T04:44:51.173Z,99.99
2018-12-06T04:45:51.200Z,99.99
2018-12-06T04:47:44.098Z,99.99
2018-12-06T04:48:44.101Z,99.99
2018-12-06T04:50:37.001Z,99.99
2018-12-06T04:51:37.015Z,99.99
2018-12-06T04:53:30.414Z,99.99
2018-12-06T04:54:30.422Z,99.99
2018-12-06T04:56:23.328Z,99.99
2018-12-06T04:57:23.355Z,99.99
2018-12-06T04:59:16.344Z,99.99
2018-12-06T05:00:16.350Z,99.99
2018-12-06T05:02:09.487Z,99.99
2018-12-06T05:03:09.265Z,99.99
2018-12-06T05:05:02.331Z,99.99
2018-12-06T05:06:02.239Z,99.99
2018-12-06T05:07:55.686Z,99.99
2018-12-06T05:08:55.198Z,99.99
2018-12-06T05:10:48.909Z,99.99
2018-12-06T05:11:48.605Z,99.99
2018-12-06T05:13:42.206Z,99.99
2018-12-06T05:14:42.211Z,99.99
2018-12-06T05:16:35.159Z,99.99
2018-12-06T05:17:35.128Z,99.99
2018-12-06T05:19:28.026Z,99.99
2018-12-06T05:20:28.041Z,99.99
2018-12-06T05:22:20.958Z,99.99
2018-12-06T05:23:20.954Z,99.99
2018-12-06T05:25:13.851Z,99.99
2018-12-06T05:26:13.864Z,99.99
2018-12-06T05:28:06.802Z,99.99
2018-12-06T05:29:06.784Z,99.99
2018-12-06T05:31:00.223Z,99.99
2018-12-06T05:32:00.188Z,99.99
2018-12-06T05:33:53.101Z,99.99
2018-12-06T05:34:53.106Z,99.99
2018-12-06T05:36:46.495Z,99.99
2018-12-06T05:37:46.512Z,99.99
2018-12-06T05:39:39.424Z,99.99
2018-12-06T05:40:39.430Z,99.99
2018-12-06T05:42:32.652Z,99.99
2018-12-06T05:43:32.346Z,99.99
2018-12-06T05:45:25.245Z,99.99
2018-12-06T05:46:25.257Z,99.99
2018-12-06T05:48:18.163Z,99.99
2018-12-06T05:49:18.169Z,99.99
2018-12-06T05:51:11.068Z,99.99
2018-12-06T05:52:11.082Z,99.99
2018-12-06T05:54:04.092Z,99.99
2018-12-06T05:55:04.008Z,99.99
2018-12-06T05:56:56.894Z,99.99
2018-12-06T05:57:56.907Z,99.99
2018-12-06T05:59:49.822Z,99.99
2018-12-06T06:00:49.833Z,99.99
2018-12-06T06:02:42.758Z,99.99
2018-12-06T06:03:43.511Z,99.99
2018-12-06T06:05:36.642Z,99.99
2018-12-06T06:06:36.651Z,99.99
2018-12-06T06:08:29.570Z,99.99
2018-12-06T06:09:29.566Z,99.99
2018-12-06T06:11:22.475Z,99.99
2018-12-06T06:12:22.479Z,99.99
2018-12-06T06:14:15.408Z,99.99
2018-12-06T06:15:15.395Z,99.99
2018-12-06T06:17:08.312Z,99.99
2018-12-06T06:18:08.306Z,99.99
2018-12-06T06:20:01.221Z,99.99
2018-12-06T06:21:01.226Z,99.99
2018-12-06T06:22:54.254Z,99.99
2018-12-06T06:23:54.264Z,99.99
2018-12-06T06:25:47.173Z,99.99
2018-12-06T06:26:47.183Z,99.99
2018-12-06T06:28:40.086Z,99.99
2018-12-06T06:29:40.095Z,99.99
2018-12-06T06:31:32.994Z,99.99
2018-12-06T06:32:33.029Z,99.99
2018-12-06T06:34:25.914Z,99.99
2018-12-06T06:35:25.933Z,99.99
2018-12-06T06:37:18.819Z,99.99
2018-12-06T06:38:18.854Z,99.99
2018-12-06T06:40:11.743Z,99.99
2018-12-06T06:41:11.765Z,99.99
2018-12-06T06:43:04.645Z,99.99
2018-12-06T06:44:04.672Z,99.99
2018-12-06T06:45:57.569Z,99.99
2018-12-06T06:46:57.580Z,99.99
2018-12-06T06:48:50.493Z,99.99
2018-12-06T06:49:50.490Z,99.99
2018-12-06T06:51:43.394Z,99.99
2018-12-06T06:52:43.411Z,99.99
2018-12-06T06:54:36.318Z,99.99
2018-12-06T06:55:36.325Z,99.99
2018-12-06T06:57:29.238Z,99.99
2018-12-06T06:58:29.263Z,99.99
2018-12-06T07:00:22.180Z,99.99
2018-12-06T07:01:22.192Z,99.99
2018-12-06T07:03:15.092Z,99.99
2018-12-06T07:04:15.111Z,99.99
2018-12-06T07:06:08.011Z,99.99
2018-12-06T07:07:08.024Z,99.99
2018-12-06T07:09:00.932Z,99.99
2018-12-06T07:10:00.932Z,99.99
2018-12-06T07:11:53.930Z,99.99
2018-12-06T07:12:53.851Z,99.99
2018-12-06T07:14:46.755Z,99.99
2018-12-06T07:15:46.762Z,99.99
2018-12-06T07:17:39.664Z,99.99
2018-12-06T07:18:39.681Z,99.99
2018-12-06T07:20:32.583Z,99.99
2018-12-06T07:21:32.591Z,99.99
2018-12-06T07:23:25.493Z,99.99
2018-12-06T07:24:25.510Z,99.99
2018-12-06T07:26:18.416Z,99.99
2018-12-06T07:27:18.426Z,99.99
2018-12-06T07:29:11.336Z,99.99
2018-12-06T07:30:12.528Z,99.99
2018-12-06T07:32:04.244Z,99.99
2018-12-06T07:33:04.256Z,99.99
2018-12-06T07:34:57.162Z,99.99
2018-12-06T07:35:57.167Z,99.99
2018-12-06T07:37:50.081Z,99.99
2018-12-06T07:38:50.084Z,99.99
2018-12-06T07:40:43.000Z,99.99
2018-12-06T07:41:43.003Z,99.99
2018-12-06T07:43:35.893Z,99.99
2018-12-06T07:44:35.909Z,99.99
2018-12-06T07:46:28.815Z,99.99
2018-12-06T07:47:28.822Z,99.99
2018-12-06T07:49:21.732Z,99.99
2018-12-06T07:50:21.736Z,99.99
2018-12-06T07:52:14.641Z,99.99
2018-12-06T07:53:14.650Z,99.99
2018-12-06T07:55:07.583Z,99.99
2018-12-06T07:56:07.568Z,99.99
2018-12-06T07:58:00.465Z,99.99
2018-12-06T07:59:00.495Z,99.99
2018-12-06T08:00:53.397Z,99.99
2018-12-06T08:01:53.410Z,99.99
2018-12-06T08:03:47.800Z,99.99
2018-12-06T08:04:47.757Z,99.99
2018-12-06T08:06:40.736Z,99.99
2018-12-06T08:07:40.658Z,99.99
2018-12-06T08:09:33.567Z,99.99
2018-12-06T08:10:33.573Z,99.99
2018-12-06T08:12:26.472Z,99.99
2018-12-06T08:13:26.485Z,99.99
2018-12-06T08:15:19.398Z,99.99
2018-12-06T08:16:19.403Z,99.99
2018-12-06T08:18:12.300Z,99.99
2018-12-06T08:19:13.960Z,99.99
2018-12-06T08:21:05.223Z,99.99
2018-12-06T08:22:05.233Z,99.99
2018-12-06T08:23:58.135Z,99.99
2018-12-06T08:24:58.154Z,99.99
2018-12-06T08:26:51.068Z,99.99
2018-12-06T08:27:51.077Z,99.99
2018-12-06T08:29:43.983Z,99.99
2018-12-06T08:30:43.992Z,99.99
2018-12-06T08:32:36.895Z,99.99
2018-12-06T08:33:36.908Z,99.99
2018-12-06T08:35:29.818Z,99.99
2018-12-06T08:36:29.832Z,99.99
2018-12-06T08:38:22.728Z,99.99
2018-12-06T08:39:22.756Z,99.99
2018-12-06T08:41:15.648Z,99.99
2018-12-06T08:42:15.656Z,99.99
2018-12-06T08:44:08.557Z,99.99
2018-12-06T08:45:08.566Z,99.99
2018-12-06T08:47:01.479Z,99.99
2018-12-06T08:48:01.483Z,99.99
2018-12-06T08:49:54.396Z,99.99
2018-12-06T08:50:54.425Z,99.99
2018-12-06T08:52:47.300Z,99.99
2018-12-06T08:53:47.327Z,99.99
2018-12-06T08:55:40.224Z,99.99
2018-12-06T08:56:40.253Z,99.99
2018-12-06T08:58:33.135Z,99.99
2018-12-06T08:59:33.157Z,99.99
2018-12-06T09:01:26.053Z,99.99
2018-12-06T09:02:26.065Z,99.99
2018-12-06T09:04:18.962Z,99.99
2018-12-06T09:05:18.976Z,99.99
2018-12-06T09:07:11.906Z,99.99
2018-12-06T09:08:11.914Z,99.99
2018-12-06T09:10:04.858Z,99.99
2018-12-06T09:11:04.854Z,99.99
2018-12-06T09:12:57.759Z,99.99
2018-12-06T09:13:57.773Z,99.99
2018-12-06T09:15:50.677Z,99.99
2018-12-06T09:16:50.689Z,99.99
2018-12-06T09:18:43.584Z,99.99
2018-12-06T09:19:43.599Z,99.99
2018-12-06T09:21:36.511Z,99.99
2018-12-06T09:22:36.523Z,99.99
2018-12-06T09:24:29.413Z,99.99
2018-12-06T09:25:29.432Z,99.99
2018-12-06T09:27:22.340Z,99.99
2018-12-06T09:28:22.348Z,99.99
2018-12-06T09:30:15.255Z,99.99
2018-12-06T09:31:15.261Z,99.99
2018-12-06T09:33:08.162Z,99.99
2018-12-06T09:34:08.178Z,99.99
2018-12-06T09:36:01.088Z,99.99
2018-12-06T09:37:01.109Z,99.99
2018-12-06T09:38:53.997Z,99.99
2018-12-06T09:39:54.010Z,99.99
2018-12-06T09:41:46.927Z,99.99
2018-12-06T09:42:46.985Z,99.99
2018-12-06T09:44:39.827Z,99.99
2018-12-06T09:45:39.843Z,99.99
2018-12-06T09:47:32.753Z,99.99
2018-12-06T09:48:32.761Z,99.99
2018-12-06T09:50:25.668Z,99.99
2018-12-06T09:51:25.676Z,99.99
2018-12-06T09:53:18.577Z,99.99
2018-12-06T09:54:18.598Z,99.99
2018-12-06T09:56:11.506Z,99.99
2018-12-06T09:57:11.513Z,99.99
2018-12-06T09:59:04.416Z,99.99
2018-12-06T10:00:04.433Z,99.99
2018-12-06T10:01:57.337Z,99.99
2018-12-06T10:02:57.345Z,99.99
2018-12-06T10:04:50.246Z,99.99
2018-12-06T10:05:50.261Z,99.99
2018-12-06T10:07:43.172Z,99.99
2018-12-06T10:08:43.179Z,99.99
2018-12-06T10:10:36.085Z,99.99
2018-12-06T10:11:36.093Z,99.99
2018-12-06T10:13:29.003Z,99.99
2018-12-06T10:14:29.014Z,99.99
2018-12-06T10:16:21.922Z,99.99
2018-12-06T10:17:21.928Z,99.99
2018-12-06T10:19:14.828Z,99.99
2018-12-06T10:20:14.845Z,99.99
2018-12-06T10:22:07.755Z,99.99
2018-12-06T10:23:07.762Z,99.99
2018-12-06T10:25:00.662Z,99.99
2018-12-06T10:26:00.680Z,99.99
2018-12-06T10:27:53.587Z,99.99
2018-12-06T10:28:53.595Z,99.99
2018-12-06T10:30:46.507Z,99.99
2018-12-06T10:31:46.514Z,99.99
2018-12-06T10:33:39.418Z,99.99
2018-12-06T10:34:39.432Z,99.99
2018-12-06T10:36:32.342Z,99.99
2018-12-06T10:37:32.353Z,99.99
2018-12-06T10:39:25.253Z,99.99
2018-12-06T10:40:25.273Z,99.99
2018-12-06T10:42:18.179Z,99.99
2018-12-06T10:43:18.186Z,99.99
2018-12-06T10:45:11.091Z,99.99
2018-12-06T10:46:11.106Z,99.99
2018-12-06T10:48:04.017Z,99.99
2018-12-06T10:49:04.027Z,99.99
2018-12-06T10:50:56.933Z,99.99
2018-12-06T10:51:56.941Z,99.99
2018-12-06T10:53:49.841Z,99.99
2018-12-06T10:54:49.858Z,99.99
2018-12-06T10:56:42.785Z,99.99
2018-12-06T10:57:42.772Z,99.99
2018-12-06T10:59:35.696Z,99.99
2018-12-06T11:00:35.690Z,99.99
2018-12-06T11:02:28.606Z,99.99
2018-12-06T11:03:28.617Z,99.99
2018-12-06T11:05:21.523Z,99.99
2018-12-06T11:06:21.531Z,99.99
2018-12-06T11:08:14.461Z,99.99
2018-12-06T11:09:14.450Z,99.99
2018-12-06T11:11:07.380Z,99.99
2018-12-06T11:12:07.366Z,99.99
2018-12-06T11:14:00.762Z,99.99
2018-12-06T11:15:00.778Z,99.99
2018-12-06T11:16:53.687Z,99.99
2018-12-06T11:17:53.694Z,99.99
2018-12-06T11:19:46.600Z,99.99
2018-12-06T11:20:46.615Z,99.99
2018-12-06T11:22:39.524Z,99.99
2018-12-06T11:23:39.535Z,99.99
2018-12-06T11:25:32.444Z,99.99
2018-12-06T11:26:32.453Z,99.99
2018-12-06T11:28:25.362Z,99.99
2018-12-06T11:29:25.370Z,99.99
2018-12-06T11:31:18.283Z,99.99
2018-12-06T11:32:18.292Z,99.99
2018-12-06T11:34:11.192Z,99.99
2018-12-06T11:35:11.209Z,99.99
2018-12-06T11:37:04.117Z,99.99
2018-12-06T11:38:04.126Z,99.99
2018-12-06T11:39:57.032Z,99.99
2018-12-06T11:40:57.045Z,99.99
2018-12-06T11:42:49.954Z,99.99
2018-12-06T11:43:49.961Z,99.99
2018-12-06T11:45:42.860Z,99.99
2018-12-06T11:46:42.878Z,99.99
2018-12-06T11:48:35.811Z,99.99
2018-12-06T11:49:35.798Z,99.99
2018-12-06T11:51:28.721Z,99.99
2018-12-06T11:52:28.711Z,99.99
2018-12-06T11:54:21.629Z,99.99
2018-12-06T11:55:21.740Z,99.99
2018-12-06T11:57:14.549Z,99.99
2018-12-06T11:58:14.557Z,99.99
2018-12-06T12:00:07.449Z,99.99
2018-12-06T12:01:07.468Z,99.99
2018-12-06T12:03:00.388Z,99.99
2018-12-06T12:04:00.386Z,99.99
2018-12-06T12:05:58.515Z,99.99
2018-12-06T12:06:53.308Z,99.99
2018-12-06T12:08:46.235Z,99.99
2018-12-06T12:09:46.227Z,99.99
2018-12-06T12:11:39.138Z,99.99
2018-12-06T12:12:39.147Z,99.99
2018-12-06T12:14:32.050Z,99.99
2018-12-06T12:15:32.067Z,99.99
2018-12-06T12:17:24.975Z,99.99
2018-12-06T12:18:24.983Z,99.99
2018-12-06T12:20:17.888Z,99.99
2018-12-06T12:21:17.901Z,99.99
2018-12-06T12:23:10.817Z,99.99
2018-12-06T12:24:10.823Z,99.99
2018-12-06T12:26:03.729Z,99.99
2018-12-06T12:27:03.741Z,99.99
2018-12-06T12:28:56.659Z,99.99
2018-12-06T12:29:56.663Z,99.99
2018-12-06T12:31:49.577Z,99.99
2018-12-06T12:32:49.585Z,99.99
2018-12-06T12:34:42.490Z,99.99
2018-12-06T12:35:42.505Z,99.99
2018-12-06T12:37:35.621Z,99.99
2018-12-06T12:38:35.629Z,99.99
2018-12-06T12:40:28.532Z,99.99
2018-12-06T12:41:28.547Z,99.99
2018-12-06T12:43:21.452Z,99.99
2018-12-06T12:44:21.463Z,99.99
2018-12-06T12:46:14.364Z,99.99
2018-12-06T12:47:14.382Z,99.99
2018-12-06T12:49:07.291Z,99.99
2018-12-06T12:50:07.299Z,99.99
2018-12-06T12:52:00.210Z,99.99
2018-12-06T12:53:00.217Z,99.99
2018-12-06T12:54:53.120Z,99.99
2018-12-06T12:55:53.137Z,99.99
2018-12-06T12:57:46.047Z,99.99
2018-12-06T12:58:46.062Z,99.99
2018-12-06T13:00:38.961Z,99.99
2018-12-06T13:01:38.978Z,99.99
2018-12-06T13:03:31.889Z,99.99
2018-12-06T13:04:31.899Z,99.99
2018-12-06T13:06:24.799Z,99.99
2018-12-06T13:07:24.818Z,99.99
2018-12-06T13:09:17.731Z,99.99
2018-12-06T13:10:17.739Z,99.99
2018-12-06T13:12:10.647Z,99.99
2018-12-06T13:13:10.659Z,99.99
2018-12-06T13:15:03.558Z,99.99
2018-12-06T13:16:03.578Z,99.99
2018-12-06T13:17:56.491Z,99.99
2018-12-06T13:18:56.497Z,99.99
2018-12-06T13:20:49.412Z,99.99
2018-12-06T13:21:49.420Z,99.99
2018-12-06T13:23:42.326Z,99.99
2018-12-06T13:24:42.339Z,99.99
2018-12-06T13:26:35.250Z,99.99
2018-12-06T13:27:35.257Z,99.99
2018-12-06T13:29:28.165Z,99.99
2018-12-06T13:30:28.181Z,99.99
2018-12-06T13:32:21.092Z,99.99
2018-12-06T13:33:21.100Z,99.99
2018-12-06T13:35:14.021Z,99.99
2018-12-06T13:36:14.017Z,99.99
2018-12-06T13:38:06.927Z,99.99
2018-12-06T13:39:06.943Z,99.99
2018-12-06T13:40:59.856Z,99.99
2018-12-06T13:41:59.865Z,99.99
2018-12-06T13:43:52.769Z,99.99
2018-12-06T13:44:52.783Z,99.99
2018-12-06T13:46:45.701Z,99.99
2018-12-06T13:47:45.704Z,99.99
2018-12-06T13:49:38.674Z,99.99
2018-12-06T13:50:38.668Z,99.99
2018-12-06T13:52:31.587Z,99.99
2018-12-06T13:53:31.584Z,99.99
2018-12-06T13:55:24.496Z,99.99
2018-12-06T13:56:24.504Z,99.99
2018-12-06T13:58:17.423Z,99.99
2018-12-06T13:59:17.427Z,99.99
2018-12-06T14:01:10.653Z,99.99
2018-12-06T14:02:10.358Z,99.99
2018-12-06T14:04:03.250Z,99.99
2018-12-06T14:05:03.269Z,99.99
2018-12-06T14:06:56.186Z,99.99
2018-12-06T14:07:56.189Z,99.99
2018-12-06T14:09:49.090Z,99.99
2018-12-06T14:10:49.107Z,99.99
2018-12-06T14:12:42.019Z,99.99
2018-12-06T14:13:42.024Z,99.99
2018-12-06T14:15:34.929Z,99.99
2018-12-06T14:16:34.971Z,99.99
2018-12-06T14:18:27.867Z,99.99
2018-12-06T14:19:27.881Z,99.99
2018-12-06T14:21:20.779Z,99.99
2018-12-06T14:22:20.788Z,99.99
2018-12-06T14:24:13.693Z,99.99
2018-12-06T14:25:13.704Z,99.99
2018-12-06T14:27:06.617Z,99.99
2018-12-06T14:28:06.642Z,99.99
2018-12-06T14:29:59.531Z,99.99
2018-12-06T14:30:59.546Z,99.99
2018-12-06T14:32:52.460Z,99.99
2018-12-06T14:33:52.467Z,99.99
2018-12-06T14:35:45.370Z,99.99
2018-12-06T14:36:45.385Z,99.99
2018-12-06T14:38:38.296Z,99.99
2018-12-06T14:39:38.308Z,99.99
2018-12-06T14:41:31.220Z,99.99
2018-12-06T14:42:31.228Z,99.99
2018-12-06T14:44:24.149Z,99.99
2018-12-06T14:45:24.169Z,99.99
2018-12-06T14:47:17.078Z,99.99
2018-12-06T14:48:17.091Z,99.99
2018-12-06T14:50:09.993Z,99.99
2018-12-06T14:51:10.006Z,99.99
2018-12-06T14:53:02.921Z,99.99
2018-12-06T14:54:02.929Z,99.99
2018-12-06T14:55:55.829Z,99.99
2018-12-06T14:56:55.846Z,99.99
2018-12-06T14:58:48.761Z,99.99
2018-12-06T14:59:48.767Z,99.99
2018-12-06T15:01:41.674Z,99.99
2018-12-06T15:02:41.690Z,99.99
2018-12-06T15:04:35.594Z,99.99
2018-12-06T15:05:35.608Z,99.99
2018-12-06T15:07:28.530Z,99.99
2018-12-06T15:08:28.527Z,99.99
2018-12-06T15:10:21.446Z,99.99
2018-12-06T15:11:21.443Z,99.99
2018-12-06T15:13:14.377Z,99.99
2018-12-06T15:14:14.368Z,99.99
2018-12-06T15:16:07.287Z,99.99
2018-12-06T15:17:07.293Z,99.99
2018-12-06T15:19:00.215Z,99.99
2018-12-06T15:20:00.213Z,99.99
2018-12-06T15:21:53.114Z,99.99
2018-12-06T15:22:53.130Z,99.99
2018-12-06T15:24:46.045Z,99.99
2018-12-06T15:25:46.053Z,99.99
2018-12-06T15:27:38.963Z,99.99
2018-12-06T15:28:38.969Z,99.99
2018-12-06T15:30:31.875Z,99.99
2018-12-06T15:31:31.892Z,99.99
2018-12-06T15:33:24.807Z,99.99
2018-12-06T15:34:24.818Z,99.99
2018-12-06T15:36:17.717Z,99.99
2018-12-06T15:37:17.733Z,99.99
2018-12-06T15:39:10.655Z,99.99
2018-12-06T15:40:10.681Z,99.99
2018-12-06T15:42:03.567Z,99.99
2018-12-06T15:43:03.590Z,99.99
2018-12-06T15:44:56.502Z,99.99
2018-12-06T15:45:56.495Z,99.99
2018-12-06T15:47:49.405Z,99.99
2018-12-06T15:48:49.421Z,99.99
2018-12-06T15:50:42.331Z,99.99
2018-12-06T15:51:42.369Z,99.99
2018-12-06T15:53:35.253Z,99.99
2018-12-06T15:54:35.266Z,99.99
2018-12-06T15:56:28.164Z,99.99
2018-12-06T15:57:28.181Z,99.99
2018-12-06T15:59:21.141Z,99.99
2018-12-06T16:00:21.102Z,99.99
2018-12-06T16:02:14.039Z,99.99
2018-12-06T16:03:14.046Z,99.99
2018-12-06T16:05:06.966Z,99.99
2018-12-06T16:06:06.973Z,99.99
2018-12-06T16:07:59.882Z,99.99
2018-12-06T16:08:59.895Z,99.99
2018-12-06T16:10:52.806Z,99.99
2018-12-06T16:11:52.812Z,99.99
2018-12-06T16:13:45.719Z,99.99
2018-12-06T16:14:45.736Z,99.99
2018-12-06T16:16:45.776Z,99.99
2018-12-06T16:17:38.669Z,99.99
2018-12-06T16:19:31.670Z,99.99
2018-12-06T16:20:31.593Z,99.99
2018-12-06T16:22:24.518Z,99.99
2018-12-06T16:23:24.557Z,99.99
2018-12-06T16:25:17.425Z,99.99
2018-12-06T16:26:17.432Z,99.99
2018-12-06T16:28:10.334Z,99.99
2018-12-06T16:29:10.423Z,99.99
2018-12-06T16:31:03.340Z,99.99
2018-12-06T16:32:03.299Z,99.99
2018-12-06T16:33:56.195Z,99.99
2018-12-06T16:34:56.190Z,99.99
2018-12-06T16:36:49.126Z,99.99
2018-12-06T16:37:49.111Z,99.99
2018-12-06T16:39:42.019Z,99.99
2018-12-06T16:40:42.028Z,99.99
2018-12-06T16:42:34.929Z,99.99
2018-12-06T16:43:34.946Z,99.99
2018-12-06T16:45:27.874Z,99.99
2018-12-06T16:46:27.957Z,99.99
2018-12-06T16:48:20.788Z,99.99
2018-12-06T16:49:20.802Z,99.99
2018-12-06T16:51:13.710Z,99.99
2018-12-06T16:52:13.719Z,99.99
2018-12-06T16:54:06.632Z,99.99
2018-12-06T16:55:06.644Z,99.99
2018-12-06T16:56:59.555Z,99.99
2018-12-06T16:57:59.626Z,99.99
2018-12-06T16:59:53.096Z,99.99
2018-12-06T17:00:53.173Z,99.99
2018-12-06T17:02:45.992Z,99.99
2018-12-06T17:03:45.996Z,99.99
2018-12-06T17:05:38.906Z,99.99
2018-12-06T17:06:38.930Z,99.99
2018-12-06T17:08:31.818Z,99.99
2018-12-06T17:09:31.849Z,99.99
2018-12-06T17:11:24.821Z,99.99
2018-12-06T17:12:24.913Z,99.99
2018-12-06T17:14:18.039Z,99.99
2018-12-06T17:15:18.871Z,99.99
2018-12-06T17:17:10.984Z,99.99
2018-12-06T17:18:10.998Z,99.99
2018-12-06T17:20:03.928Z,99.99
2018-12-06T17:21:03.924Z,99.99
2018-12-06T17:22:57.056Z,99.99
2018-12-06T17:23:56.831Z,99.99
2018-12-06T17:25:49.767Z,99.99
2018-12-06T17:26:49.774Z,99.99
2018-12-06T17:28:42.684Z,99.99
2018-12-06T17:29:42.701Z,99.99
2018-12-06T17:31:35.611Z,99.99
2018-12-06T17:32:35.630Z,99.99
2018-12-06T17:34:28.538Z,99.99
2018-12-06T17:35:28.542Z,99.99
2018-12-06T17:37:21.451Z,99.99
2018-12-06T17:38:21.468Z,99.99
2018-12-06T17:40:14.507Z,99.99
2018-12-06T17:41:14.444Z,99.99
2018-12-06T17:43:07.359Z,99.99
2018-12-06T17:44:07.354Z,99.99
2018-12-06T17:46:00.287Z,99.99
2018-12-06T17:47:00.297Z,99.99
2018-12-06T17:48:53.201Z,99.99
2018-12-06T17:49:53.194Z,99.99
2018-12-06T17:51:46.113Z,99.99
2018-12-06T17:52:46.113Z,99.99
2018-12-06T17:54:39.069Z,99.99
2018-12-06T17:55:39.080Z,99.99
2018-12-06T17:57:32.029Z,99.99
2018-12-06T17:58:31.995Z,99.99
2018-12-06T18:00:24.907Z,99.99
2018-12-06T18:01:24.914Z,99.99
2018-12-06T18:03:17.908Z,99.99
2018-12-06T18:04:17.883Z,99.99
2018-12-06T18:06:10.863Z,99.99
2018-12-06T18:07:10.781Z,99.99
2018-12-06T18:09:03.689Z,99.99
2018-12-06T18:10:03.724Z,99.99
2018-12-06T18:11:56.636Z,99.99
2018-12-06T18:12:56.646Z,99.99
2018-12-06T18:14:49.578Z,99.99
2018-12-06T18:15:49.635Z,99.99
2018-12-06T18:17:42.464Z,99.99
2018-12-06T18:18:42.503Z,99.99
2018-12-06T18:20:35.464Z,99.99
2018-12-06T18:21:35.427Z,99.99
2018-12-06T18:23:28.349Z,99.99
2018-12-06T18:24:28.353Z,99.99
2018-12-06T18:26:21.270Z,99.99
2018-12-06T18:27:21.280Z,99.99
2018-12-06T18:29:14.187Z,99.99
2018-12-06T18:30:14.232Z,99.99
2018-12-06T18:32:07.116Z,99.99
2018-12-06T18:33:07.118Z,99.99